Time;durP1;ratioP1;P1;durP2;ratioP2;P2;SDS_P1;SDS_P2;PMS_P1;PMS_P2;Temp;Humidity;BMP_temperature;BMP_pressure;BME280_temperature;BME280_humidity;BME280_pressure;Samples;Min_cycle;Max_cycle;Signal;HPM_P1;HPM_P2
2024/03/23 00:00:58;;;;;;;40.93;14.07;;;8.20;99.90;;;;;;5030959;28;20214;-75
2024/03/23 00:03:24;;;;;;;34.17;13.37;;;8.10;99.90;;;;;;5031088;28;20306;-76
2024/03/23 00:05:49;;;;;;;26.50;13.43;;;8.00;99.90;;;;;;5030774;28;20179;-75
2024/03/23 00:08:15;;;;;;;31.50;14.03;;;8.00;99.90;;;;;;5031416;28;20676;-75
2024/03/23 00:10:41;;;;;;;35.27;13.30;;;8.10;99.90;;;;;;5022742;28;20184;-75
2024/03/23 00:13:06;;;;;;;39.63;14.70;;;8.10;99.90;;;;;;5030873;28;20244;-75
2024/03/23 00:15:33;;;;;;;29.53;14.07;;;8.10;99.90;;;;;;5030874;28;20191;-75
2024/03/23 00:17:58;;;;;;;39.60;15.07;;;8.10;99.90;;;;;;5030436;28;20294;-76
2024/03/23 00:20:24;;;;;;;37.50;15.87;;;8.20;99.90;;;;;;5031018;28;20183;-76
2024/03/23 00:22:50;;;;;;;38.83;15.80;;;8.20;99.90;;;;;;5030548;28;20230;-77
2024/03/23 00:25:15;;;;;;;38.73;15.93;;;8.20;99.90;;;;;;5030845;28;20171;-77
2024/03/23 00:27:41;;;;;;;33.97;15.63;;;8.10;99.90;;;;;;5030763;28;20270;-77
2024/03/23 00:30:07;;;;;;;34.67;16.13;;;8.10;99.90;;;;;;5030762;28;20182;-77
2024/03/23 00:32:32;;;;;;;33.67;14.87;;;8.10;99.90;;;;;;5030787;28;20561;-76
2024/03/23 00:34:58;;;;;;;26.50;14.83;;;8.10;99.90;;;;;;5030201;28;20198;-77
2024/03/23 00:37:24;;;;;;;31.57;14.67;;;8.00;99.90;;;;;;5030434;28;20201;-76
2024/03/23 00:39:49;;;;;;;26.10;13.23;;;8.00;99.90;;;;;;5030481;28;20594;-76
2024/03/23 00:42:15;;;;;;;28.33;13.93;;;7.90;99.90;;;;;;5030732;28;20203;-76
2024/03/23 00:44:40;;;;;;;32.13;14.33;;;7.90;99.90;;;;;;5030407;28;20222;-77
2024/03/23 00:47:06;;;;;;;33.40;13.47;;;7.80;99.90;;;;;;5030225;28;20892;-76
2024/03/23 00:49:32;;;;;;;22.03;11.67;;;7.80;99.90;;;;;;5030676;28;20185;-77
2024/03/23 00:51:57;;;;;;;25.90;12.43;;;7.90;99.90;;;;;;5030361;28;20184;-77
2024/03/23 00:54:23;;;;;;;13.73;9.50;;;7.90;99.90;;;;;;5030488;28;20237;-75
2024/03/23 00:56:48;;;;;;;20.07;9.27;;;7.80;99.90;;;;;;5029991;28;20237;-75
2024/03/23 00:59:14;;;;;;;16.00;8.83;;;7.70;99.90;;;;;;5030460;28;20555;-76
2024/03/23 01:01:39;;;;;;;12.47;7.53;;;7.50;99.90;;;;;;5030471;28;20233;-76
2024/03/23 01:04:05;;;;;;;14.13;8.07;;;7.50;99.90;;;;;;5030250;28;20671;-76
2024/03/23 01:06:31;;;;;;;12.50;7.43;;;7.40;99.90;;;;;;5029850;28;20194;-76
2024/03/23 01:08:57;;;;;;;16.47;8.17;;;7.30;99.90;;;;;;5034191;28;20183;-76
2024/03/23 01:11:22;;;;;;;15.33;8.90;;;7.30;99.90;;;;;;5034504;28;20183;-76
2024/03/23 01:13:48;;;;;;;13.70;8.00;;;7.30;99.90;;;;;;5034115;28;20183;-76
2024/03/23 01:16:13;;;;;;;14.23;8.83;;;7.30;99.90;;;;;;5034093;28;20608;-76
2024/03/23 01:18:39;;;;;;;21.13;9.40;;;7.30;99.90;;;;;;5034314;28;20199;-76
2024/03/23 01:21:04;;;;;;;13.93;9.20;;;7.30;99.90;;;;;;5033645;28;20211;-76
2024/03/23 01:23:30;;;;;;;21.07;9.33;;;7.40;99.90;;;;;;5034282;28;20214;-76
2024/03/23 01:25:56;;;;;;;15.23;9.73;;;7.40;99.90;;;;;;5033624;28;20184;-76
2024/03/23 01:28:22;;;;;;;19.47;10.03;;;7.50;99.90;;;;;;5034348;28;20733;-76
2024/03/23 01:30:48;;;;;;;20.17;9.33;;;7.30;99.90;;;;;;5033794;28;20175;-75
2024/03/23 01:33:13;;;;;;;18.83;9.57;;;7.30;99.90;;;;;;5033685;28;20313;-75
2024/03/23 01:35:39;;;;;;;18.47;9.83;;;7.30;99.90;;;;;;5033968;28;20678;-76
2024/03/23 01:38:05;;;;;;;25.57;10.33;;;7.30;99.90;;;;;;5033605;28;20199;-75
2024/03/23 01:40:33;;;;;;;20.83;10.17;;;7.30;99.90;;;;;;5033934;28;20187;-75
2024/03/23 01:43:04;;;;;;;24.30;10.80;;;7.30;99.90;;;;;;5033651;28;20215;-76
2024/03/23 01:45:30;;;;;;;17.53;10.83;;;7.20;99.90;;;;;;5033373;28;20317;-75
2024/03/23 01:47:56;;;;;;;26.77;11.47;;;7.30;99.90;;;;;;5033091;28;20215;-76
2024/03/23 01:50:23;;;;;;;19.87;10.97;;;7.30;99.90;;;;;;5033929;28;20179;-76
2024/03/23 01:52:49;;;;;;;29.50;12.00;;;7.30;99.90;;;;;;5033708;28;20538;-76
2024/03/23 01:55:15;;;;;;;27.33;12.07;;;7.20;99.90;;;;;;5033241;28;20187;-75
2024/03/23 01:57:41;;;;;;;14.70;8.50;;;7.20;99.90;;;;;;5033336;28;20219;-75
2024/03/23 02:00:07;;;;;;;12.00;6.43;;;7.10;99.90;;;;;;5032770;28;20213;-75
2024/03/23 02:02:32;;;;;;;15.33;6.73;;;6.90;99.90;;;;;;5033411;28;20535;-74
2024/03/23 02:04:58;;;;;;;9.83;6.33;;;6.80;99.90;;;;;;5033049;28;20190;-76
2024/03/23 02:07:24;;;;;;;14.83;7.40;;;6.60;99.90;;;;;;5033348;28;20203;-75
2024/03/23 02:09:51;;;;;;;12.70;6.20;;;6.40;99.90;;;;;;5033455;28;20179;-75
2024/03/23 02:12:18;;;;;;;8.93;6.00;;;6.40;99.90;;;;;;5032892;28;20191;-76
2024/03/23 02:14:43;;;;;;;7.37;5.90;;;6.20;99.90;;;;;;5033127;28;20597;-75
2024/03/23 02:17:09;;;;;;;7.80;5.97;;;6.10;99.90;;;;;;5032265;28;20221;-76
2024/03/23 02:19:35;;;;;;;9.90;6.07;;;6.10;99.90;;;;;;5033104;28;20682;-76
2024/03/23 02:22:00;;;;;;;7.63;6.10;;;6.10;99.90;;;;;;5032491;28;20684;-75
2024/03/23 02:24:26;;;;;;;8.33;6.77;;;6.10;99.90;;;;;;5033459;28;20270;-75
2024/03/23 02:26:51;;;;;;;9.57;6.33;;;6.10;99.90;;;;;;5032684;28;20630;-76
2024/03/23 02:29:17;;;;;;;10.77;6.47;;;6.00;99.90;;;;;;5032983;28;20188;-76
2024/03/23 02:31:42;;;;;;;7.67;6.13;;;6.10;99.90;;;;;;5032772;28;20559;-76
2024/03/23 02:34:08;;;;;;;11.13;5.93;;;6.10;99.90;;;;;;5032728;28;20263;-76
2024/03/23 02:36:34;;;;;;;45.13;19.60;;;6.10;99.90;;;;;;5032600;28;20176;-77
2024/03/23 02:38:59;;;;;;;28.40;13.03;;;6.10;99.90;;;;;;5032512;28;20187;-76
2024/03/23 02:41:25;;;;;;;60.70;33.93;;;6.10;99.90;;;;;;5032821;28;20216;-76
2024/03/23 02:43:51;;;;;;;24.30;14.00;;;6.00;99.90;;;;;;5032599;28;20666;-76
2024/03/23 02:46:16;;;;;;;17.07;11.13;;;6.00;99.90;;;;;;5032430;28;20176;-77
2024/03/23 02:48:42;;;;;;;11.87;7.77;;;6.10;99.90;;;;;;5032449;28;20306;-76
2024/03/23 02:51:07;;;;;;;13.73;6.97;;;6.10;99.90;;;;;;5032432;28;20175;-76
2024/03/23 02:53:33;;;;;;;11.33;7.57;;;6.20;99.90;;;;;;5032613;28;20184;-77
2024/03/23 02:55:59;;;;;;;11.23;7.37;;;6.10;99.90;;;;;;5031975;28;20689;-77
2024/03/23 02:58:25;;;;;;;13.83;7.00;;;6.10;99.90;;;;;;5032290;28;20215;-76
2024/03/23 03:00:50;;;;;;;10.83;6.97;;;6.10;99.90;;;;;;5032402;28;20202;-76
2024/03/23 03:03:16;;;;;;;20.17;7.30;;;6.10;99.90;;;;;;5032266;28;20207;-76
2024/03/23 03:05:41;;;;;;;17.03;7.30;;;6.10;99.90;;;;;;5032335;28;20196;-75
2024/03/23 03:08:07;;;;;;;13.90;6.30;;;6.00;99.90;;;;;;5032288;28;20379;-76
2024/03/23 03:10:34;;;;;;;16.17;14.57;;;6.00;99.90;;;;;;5032262;28;20191;-75
2024/03/23 03:13:00;;;;;;;12.67;7.70;;;6.00;99.90;;;;;;5032282;28;20266;-76
2024/03/23 03:15:26;;;;;;;9.47;8.20;;;6.10;99.90;;;;;;5032370;28;20271;-75
2024/03/23 03:17:52;;;;;;;16.00;7.13;;;6.10;99.90;;;;;;5032430;28;20199;-76
2024/03/23 03:20:17;;;;;;;9.03;6.50;;;6.20;99.90;;;;;;5032528;28;20187;-76
2024/03/23 03:22:43;;;;;;;11.97;5.83;;;6.20;99.90;;;;;;5032364;28;20207;-76
2024/03/23 03:25:09;;;;;;;15.83;6.73;;;6.10;99.90;;;;;;5031814;28;20197;-75
2024/03/23 03:27:35;;;;;;;14.30;6.00;;;6.00;99.90;;;;;;5032286;28;20245;-76
2024/03/23 03:30:02;;;;;;;12.50;6.67;;;6.00;99.90;;;;;;5031337;28;20175;-76
2024/03/23 03:32:30;;;;;;;8.80;6.23;;;5.90;99.90;;;;;;5032390;28;20538;-75
2024/03/23 03:34:56;;;;;;;9.30;6.17;;;6.00;99.90;;;;;;5032191;28;20194;-75
2024/03/23 03:37:21;;;;;;;12.33;6.30;;;6.10;99.90;;;;;;5031890;28;20199;-76
2024/03/23 03:39:47;;;;;;;8.53;6.00;;;6.10;99.90;;;;;;5032296;28;20180;-76
2024/03/23 03:42:12;;;;;;;11.53;6.93;;;6.00;99.90;;;;;;5031869;28;20286;-76
2024/03/23 03:44:39;;;;;;;11.67;5.90;;;6.00;99.90;;;;;;5047321;28;20168;-75
2024/03/23 03:47:05;;;;;;;15.67;6.03;;;6.00;99.90;;;;;;5031563;28;20223;-76
2024/03/23 03:49:31;;;;;;;14.20;6.97;;;5.90;99.90;;;;;;5031827;28;20281;-76
2024/03/23 03:51:57;;;;;;;24.13;6.40;;;5.90;99.90;;;;;;5031801;28;20262;-76
2024/03/23 03:54:22;;;;;;;10.60;6.50;;;5.90;99.90;;;;;;5032157;28;20190;-76
2024/03/23 03:59:15;;;;;;;15.13;6.20;;;5.80;99.90;;;;;;5039025;22;20255;-89
2024/03/23 04:01:40;;;;;;;15.00;6.70;;;5.90;99.90;;;;;;4995847;28;20188;-90
2024/03/23 04:04:06;;;;;;;14.00;6.80;;;5.80;99.90;;;;;;5011219;28;20203;-90
2024/03/23 04:06:33;;;;;;;13.43;6.73;;;5.90;99.90;;;;;;4995184;28;20550;-90
2024/03/23 04:08:59;;;;;;;15.80;6.50;;;5.90;99.90;;;;;;5011559;28;20172;-90
2024/03/23 04:11:24;;;;;;;11.13;6.67;;;5.90;99.90;;;;;;5011837;28;20271;-89
2024/03/23 04:13:51;;;;;;;10.50;6.37;;;5.90;99.90;;;;;;5011675;28;20195;-90
2024/03/23 04:16:33;;;;;;;10.23;6.57;;;6.00;99.90;;;;;;5011617;28;20180;-90
2024/03/23 04:18:59;;;;;;;12.60;7.10;;;6.00;99.90;;;;;;5007953;28;20262;-90
2024/03/23 04:21:24;;;;;;;10.57;6.70;;;5.90;99.90;;;;;;5011486;28;20208;-90
2024/03/23 04:23:50;;;;;;;12.97;6.63;;;6.00;99.90;;;;;;5011411;28;20207;-89
2024/03/23 04:26:16;;;;;;;11.50;6.07;;;5.90;99.90;;;;;;5011204;28;20534;-88
2024/03/23 04:28:42;;;;;;;16.90;7.70;;;6.00;99.90;;;;;;5012142;28;20176;-89
2024/03/23 04:31:08;;;;;;;11.87;6.90;;;6.00;99.90;;;;;;5011337;28;20216;-89
2024/03/23 04:33:34;;;;;;;15.93;7.00;;;6.00;99.90;;;;;;5011440;28;20208;-90
2024/03/23 04:36:00;;;;;;;12.97;6.70;;;6.00;99.90;;;;;;5011070;28;20187;-90
2024/03/23 04:38:25;;;;;;;13.97;6.60;;;6.10;99.90;;;;;;4995009;28;20533;-90
2024/03/23 04:40:55;;;;;;;8.70;6.23;;;6.00;99.90;;;;;;5011085;28;20199;-89
2024/03/23 04:43:21;;;;;;;8.83;6.67;;;6.00;99.90;;;;;;5014592;28;20226;-91
2024/03/23 04:45:47;;;;;;;12.27;7.40;;;5.90;99.90;;;;;;5034967;28;20603;-91
2024/03/23 04:48:12;;;;;;;10.70;8.73;;;6.00;99.90;;;;;;5033186;28;20529;-91
2024/03/23 04:50:38;;;;;;;17.73;8.00;;;6.00;99.90;;;;;;5034809;28;20199;-90
2024/03/23 04:53:04;;;;;;;10.30;7.47;;;6.00;99.90;;;;;;5034308;28;20183;-93
2024/03/23 04:55:31;;;;;;;16.03;7.83;;;6.00;99.90;;;;;;5019122;28;20184;-94
2024/03/23 04:57:56;;;;;;;23.23;7.70;;;6.10;99.90;;;;;;5014080;28;20243;-91
2024/03/23 05:00:23;;;;;;;15.03;7.23;;;6.10;99.90;;;;;;5025191;28;20199;-90
2024/03/23 05:02:49;;;;;;;15.57;7.33;;;6.10;99.90;;;;;;5026673;28;20204;-92
2024/03/23 05:05:14;;;;;;;13.80;7.50;;;6.10;99.90;;;;;;5021265;28;20180;-93
2024/03/23 05:07:41;;;;;;;15.07;7.40;;;6.10;99.90;;;;;;5019977;28;20267;-90
2024/03/23 05:10:10;;;;;;;11.80;6.77;;;5.90;99.90;;;;;;5026965;28;20207;-91
2024/03/23 05:12:37;;;;;;;12.07;7.70;;;5.90;99.90;;;;;;5024155;28;20247;-91
2024/03/23 05:15:04;;;;;;;18.33;7.53;;;5.80;99.90;;;;;;5024427;28;20176;-92
2024/03/23 05:17:32;;;;;;;13.33;7.03;;;5.70;99.90;;;;;;5023045;28;20184;-92
2024/03/23 05:19:57;;;;;;;19.63;7.07;;;5.70;99.90;;;;;;5023078;28;20195;-92
2024/03/23 05:22:23;;;;;;;16.87;6.87;;;5.70;99.90;;;;;;5023656;28;20291;-92
2024/03/23 05:24:48;;;;;;;17.53;7.53;;;5.70;99.90;;;;;;5030146;28;20172;-91
2024/03/23 05:27:15;;;;;;;20.53;7.70;;;5.70;99.90;;;;;;5028578;28;20180;-91
2024/03/23 05:29:43;;;;;;;15.50;8.47;;;5.70;99.90;;;;;;5019977;28;20372;-91
2024/03/23 05:32:09;;;;;;;12.23;7.57;;;5.70;99.90;;;;;;5012102;28;20264;-92
2024/03/23 05:34:34;;;;;;;19.73;8.00;;;5.70;99.90;;;;;;5012376;28;20641;-91
2024/03/23 05:37:00;;;;;;;15.37;8.17;;;5.70;99.90;;;;;;4995789;28;20673;-92
2024/03/23 05:39:27;;;;;;;18.67;7.63;;;5.60;99.90;;;;;;5011424;28;20192;-92
2024/03/23 05:41:53;;;;;;;17.63;7.67;;;5.70;99.90;;;;;;5029969;28;20184;-92
2024/03/23 05:44:20;;;;;;;18.37;7.80;;;5.50;99.90;;;;;;5013241;28;20326;-91
2024/03/23 05:46:48;;;;;;;15.50;8.13;;;5.40;99.90;;;;;;5014469;28;20172;-92
2024/03/23 05:49:16;;;;;;;14.30;7.87;;;5.40;99.90;;;;;;5013899;28;20568;-91
2024/03/23 05:51:41;;;;;;;13.90;8.27;;;5.40;99.90;;;;;;5013796;28;20542;-92
2024/03/23 05:54:07;;;;;;;12.27;8.47;;;5.40;99.90;;;;;;5017292;28;20234;-91
2024/03/23 05:56:33;;;;;;;19.27;8.47;;;5.40;99.90;;;;;;5017112;28;20674;-91
2024/03/23 05:59:03;;;;;;;15.93;9.27;;;5.40;99.90;;;;;;5016713;28;20203;-94
2024/03/23 06:01:28;;;;;;;22.60;8.87;;;5.40;99.90;;;;;;5008349;28;20172;-92
2024/03/23 06:03:57;;;;;;;11.10;8.20;;;5.40;99.90;;;;;;5015629;28;20596;-90
2024/03/23 06:06:27;;;;;;;14.47;8.13;;;5.40;99.90;;;;;;4998926;28;20195;-92
2024/03/23 06:08:54;;;;;;;14.77;8.30;;;5.40;99.90;;;;;;4998717;28;20184;-93
2024/03/23 06:11:22;;;;;;;13.03;7.40;;;5.40;99.90;;;;;;4999382;28;20204;-93
2024/03/23 06:13:58;;;;;;;20.50;8.70;;;5.40;99.90;;;;;;5015917;28;20225;-90
2024/03/23 06:16:24;;;;;;;16.23;8.27;;;5.30;99.90;;;;;;5016056;28;20171;-90
2024/03/23 06:18:58;;;;;;;19.07;8.93;;;5.30;99.90;;;;;;5015142;28;20191;-93
2024/03/23 06:21:28;;;;;;;13.23;8.17;;;5.30;99.90;;;;;;4996872;28;20204;-93
2024/03/23 06:24:03;;;;;;;13.03;8.13;;;5.30;99.90;;;;;;5016335;28;20184;-91
2024/03/23 06:26:51;;;;;;;14.90;8.37;;;5.30;99.90;;;;;;5019806;28;20196;-92
2024/03/23 06:29:19;;;;;;;17.33;8.17;;;5.30;99.90;;;;;;5014935;28;20188;-91
2024/03/23 06:31:53;;;;;;;24.17;8.60;;;5.30;99.90;;;;;;5016745;28;20184;-92
2024/03/23 06:34:21;;;;;;;10.80;8.60;;;5.40;99.90;;;;;;5007210;28;20206;-92
2024/03/23 06:37:04;;;;;;;13.77;8.90;;;5.40;99.90;;;;;;5017915;28;20192;-92
2024/03/23 06:39:36;;;;;;;17.57;9.27;;;5.50;99.90;;;;;;5016438;28;20267;-93
2024/03/23 06:42:33;;;;;;;16.00;8.07;;;5.50;99.90;;;;;;5020641;28;20254;-96
2024/03/23 06:45:00;;;;;;;15.53;9.23;;;5.60;99.90;;;;;;4998016;28;20663;-93
2024/03/23 06:47:29;;;;;;;19.80;9.03;;;5.60;99.90;;;;;;5026989;28;20173;-91
2024/03/23 06:50:15;;;;;;;12.73;9.73;;;5.70;99.90;;;;;;5017563;28;20200;-93
2024/03/23 06:52:43;;;;;;;14.83;9.13;;;5.90;99.90;;;;;;5018109;28;20262;-90
2024/03/23 06:55:21;;;;;;;17.10;9.90;;;6.00;99.90;;;;;;5017609;28;20188;-93
2024/03/23 06:57:47;;;;;;;20.40;9.40;;;6.30;99.90;;;;;;5015836;28;20195;-90
2024/03/23 07:00:20;;;;;;;17.67;9.13;;;6.60;99.90;;;;;;5015489;28;20685;-93
2024/03/23 07:02:49;;;;;;;16.50;10.40;;;6.80;99.90;;;;;;5016476;28;20301;-93
2024/03/23 07:05:40;;;;;;;16.60;8.57;;;7.10;99.90;;;;;;5016140;28;20191;-92
2024/03/23 07:08:21;;;;;;;16.90;8.27;;;7.40;99.90;;;;;;5014898;28;20271;-93
2024/03/23 07:10:49;;;;;;;14.40;8.20;;;7.60;99.90;;;;;;5011396;28;20223;-94
2024/03/23 07:13:18;;;;;;;15.27;8.87;;;7.70;99.90;;;;;;5014748;28;20187;-94
2024/03/23 07:15:55;;;;;;;17.20;8.33;;;8.00;99.90;;;;;;5014119;28;20172;-93
2024/03/23 07:18:27;;;;;;;23.00;8.33;;;8.20;99.90;;;;;;5013197;28;20199;-92
2024/03/23 07:20:58;;;;;;;13.10;6.40;;;8.50;99.90;;;;;;5013654;28;20212;-93
2024/03/23 07:23:36;;;;;;;16.73;6.87;;;8.50;99.90;;;;;;5016107;28;20480;-93
2024/03/23 07:26:37;;;;;;;14.87;6.90;;;8.80;99.90;;;;;;5014399;28;20176;-92
2024/03/23 07:29:43;;;;;;;11.33;7.17;;;9.00;99.90;;;;;;5016433;28;20190;-94
2024/03/23 07:32:22;;;;;;;12.93;6.40;;;9.10;99.90;;;;;;5015907;28;20594;-93
2024/03/23 07:34:55;;;;;;;14.53;6.83;;;9.30;99.90;;;;;;5015837;28;20183;-92
2024/03/23 07:37:48;;;;;;;16.13;6.90;;;9.50;99.90;;;;;;5015725;28;20184;-94
2024/03/23 07:40:16;;;;;;;13.03;6.90;;;9.70;99.90;;;;;;5011892;28;20294;-93
2024/03/23 07:42:42;;;;;;;14.40;7.10;;;9.90;99.90;;;;;;4996298;28;20274;-91
2024/03/23 07:45:09;;;;;;;9.43;6.80;;;9.90;99.90;;;;;;4996492;28;20181;-92
2024/03/23 07:47:36;;;;;;;13.13;7.23;;;9.60;99.90;;;;;;5012738;28;20664;-91
2024/03/23 07:50:13;;;;;;;9.63;7.00;;;9.60;99.90;;;;;;5013630;28;20204;-91
2024/03/23 07:52:38;;;;;;;15.23;7.40;;;9.80;99.90;;;;;;5020846;28;20180;-93
2024/03/23 07:55:04;;;;;;;14.30;8.57;;;10.10;99.90;;;;;;5023577;28;20206;-93
2024/03/23 07:57:30;;;;;;;12.53;7.30;;;10.40;99.90;;;;;;5032831;23;20521;-72
2024/03/23 07:59:55;;;;;;;12.87;6.57;;;10.50;99.90;;;;;;4991328;28;20177;-72
2024/03/23 08:02:21;;;;;;;11.67;6.60;;;10.50;99.90;;;;;;4991820;28;20235;-72
2024/03/23 08:04:47;;;;;;;7.03;5.40;;;10.20;99.90;;;;;;4991606;28;20185;-72
2024/03/23 08:07:12;;;;;;;7.73;5.43;;;10.20;99.90;;;;;;4990848;28;20203;-72
2024/03/23 08:09:38;;;;;;;8.60;5.30;;;10.60;99.90;;;;;;4991667;28;20181;-73
2024/03/23 08:12:04;;;;;;;7.00;5.20;;;10.90;99.90;;;;;;4992905;28;20181;-72
2024/03/23 08:14:29;;;;;;;6.17;3.90;;;11.20;99.90;;;;;;4991644;28;20267;-72
2024/03/23 08:16:55;;;;;;;6.77;4.50;;;11.60;99.90;;;;;;4991817;28;20251;-73
2024/03/23 08:19:20;;;;;;;5.90;3.93;;;11.90;99.90;;;;;;4992814;28;20188;-74
2024/03/23 08:21:46;;;;;;;6.33;3.60;;;11.90;99.90;;;;;;4992551;28;20177;-73
2024/03/23 08:24:12;;;;;;;5.67;3.63;;;11.60;99.90;;;;;;4992437;28;20331;-73
2024/03/23 08:26:37;;;;;;;4.67;3.63;;;11.50;99.90;;;;;;4992150;28;20180;-72
2024/03/23 08:29:03;;;;;;;7.93;3.93;;;11.60;99.90;;;;;;5006637;28;20290;-72
2024/03/23 08:31:29;;;;;;;11.10;3.73;;;11.60;99.90;;;;;;4992080;28;20300;-73
2024/03/23 08:33:55;;;;;;;5.63;4.20;;;11.80;99.90;;;;;;4992600;28;20263;-73
2024/03/23 08:36:20;;;;;;;6.93;4.70;;;11.90;99.90;;;;;;4992664;28;20647;-75
2024/03/23 08:38:46;;;;;;;9.70;4.83;;;11.90;99.90;;;;;;4993475;28;20367;-73
2024/03/23 08:41:12;;;;;;;8.77;5.10;;;11.90;99.90;;;;;;4993135;28;20177;-72
2024/03/23 08:43:41;;;;;;;9.93;5.43;;;12.00;99.90;;;;;;4992670;28;20232;-75
2024/03/23 08:46:07;;;;;;;11.93;5.63;;;12.10;99.90;;;;;;4992798;28;20180;-75
2024/03/23 08:48:40;;;;;;;10.60;6.00;;;12.20;99.90;;;;;;4992755;28;20200;-72
2024/03/23 08:51:07;;;;;;;9.37;4.83;;;12.30;99.90;;;;;;4993230;28;20668;-73
2024/03/23 08:53:34;;;;;;;12.03;5.43;;;12.00;99.90;;;;;;4993788;28;20181;-73
2024/03/23 08:56:02;;;;;;;12.87;5.47;;;11.50;99.90;;;;;;4991348;28;20239;-73
2024/03/23 08:58:29;;;;;;;12.00;6.10;;;11.50;99.90;;;;;;4993195;28;20261;-72
2024/03/23 09:00:56;;;;;;;9.97;5.83;;;11.40;99.90;;;;;;4994498;28;20172;-75
2024/03/23 09:03:25;;;;;;;10.73;5.47;;;11.10;99.90;;;;;;4993726;28;20549;-74
2024/03/23 09:05:51;;;;;;;11.97;5.70;;;11.10;99.90;;;;;;4997481;28;20721;-75
2024/03/23 09:08:17;;;;;;;8.23;4.40;;;11.50;99.90;;;;;;4992795;28;20215;-75
2024/03/23 09:10:43;;;;;;;10.07;6.53;;;11.80;99.90;;;;;;4993206;28;20682;-74
2024/03/23 09:13:09;;;;;;;8.77;4.90;;;11.30;99.90;;;;;;4992402;28;20658;-74
2024/03/23 09:15:36;;;;;;;8.20;4.80;;;11.30;99.90;;;;;;4992907;28;20268;-74
2024/03/23 09:18:03;;;;;;;9.50;5.07;;;11.40;99.90;;;;;;4993503;28;20768;-73
2024/03/23 09:20:28;;;;;;;10.27;5.07;;;11.50;99.90;;;;;;4993707;28;20204;-74
2024/03/23 09:22:54;;;;;;;9.80;5.53;;;11.50;99.90;;;;;;4993094;28;20205;-74
2024/03/23 09:25:20;;;;;;;6.97;4.40;;;11.90;99.90;;;;;;4992387;28;20634;-74
2024/03/23 09:27:49;;;;;;;7.27;4.10;;;11.80;99.90;;;;;;4989902;28;20205;-72
2024/03/23 09:30:14;;;;;;;7.23;4.27;;;11.50;99.90;;;;;;4995794;28;20662;-73
2024/03/23 09:32:43;;;;;;;7.47;3.90;;;11.50;99.90;;;;;;5013398;28;20192;-74
2024/03/23 09:35:09;;;;;;;8.30;4.87;;;11.90;99.90;;;;;;4997285;28;20221;-72
2024/03/23 09:37:34;;;;;;;11.73;5.27;;;12.00;99.90;;;;;;4996348;28;20577;-72
2024/03/23 09:40:00;;;;;;;7.03;3.63;;;12.00;99.90;;;;;;4996572;28;20188;-71
2024/03/23 09:42:25;;;;;;;10.53;4.20;;;12.10;99.90;;;;;;4995987;28;20219;-72
2024/03/23 09:44:51;;;;;;;4.43;3.40;;;11.40;99.90;;;;;;4996402;28;20185;-73
2024/03/23 09:47:18;;;;;;;9.97;3.93;;;10.80;99.90;;;;;;4995969;28;20287;-71
2024/03/23 09:49:44;;;;;;;6.63;4.10;;;10.70;99.90;;;;;;4996421;28;20173;-73
2024/03/23 09:52:10;;;;;;;6.33;3.70;;;10.90;99.90;;;;;;4997377;28;20239;-73
2024/03/23 09:54:36;;;;;;;10.03;4.00;;;11.20;99.90;;;;;;4996489;28;20208;-73
2024/03/23 09:57:01;;;;;;;5.67;3.10;;;11.50;99.90;;;;;;4996722;28;20184;-73
2024/03/23 09:59:27;;;;;;;8.40;3.60;;;11.50;99.90;;;;;;4995601;28;20674;-74
2024/03/23 10:01:56;;;;;;;7.27;3.23;;;11.60;99.90;;;;;;5012085;28;20181;-72
2024/03/23 10:04:41;;;;;;;8.77;3.33;;;11.90;99.90;;;;;;4996754;28;20236;-72
2024/03/23 10:07:14;;;;;;;5.27;3.67;;;12.20;99.90;;;;;;4997709;28;20587;-73
2024/03/23 10:09:40;;;;;;;8.80;2.83;;;12.30;99.90;;;;;;4997505;28;20260;-73
2024/03/23 10:12:14;;;;;;;4.77;2.97;;;12.20;99.90;;;;;;4995703;28;20204;-72
2024/03/23 10:14:40;;;;;;;3.60;2.70;;;12.40;99.90;;;;;;4997163;28;20184;-73
2024/03/23 10:17:24;;;;;;;6.83;3.27;;;12.50;99.90;;;;;;4998541;28;20212;-74
2024/03/23 10:19:51;;;;;;;11.03;3.47;;;12.40;99.90;;;;;;4996771;28;20643;-72
2024/03/23 10:22:27;;;;;;;4.83;3.10;;;11.90;99.90;;;;;;4989800;28;20220;-72
2024/03/23 10:24:53;;;;;;;3.27;2.97;;;11.40;99.90;;;;;;4996820;28;20180;-72
2024/03/23 10:27:20;;;;;;;3.30;2.73;;;10.80;99.90;;;;;;4996216;28;20204;-72
2024/03/23 10:29:47;;;;;;;6.80;3.20;;;9.80;99.90;;;;;;5003816;28;20724;-73
2024/03/23 10:32:15;;;;;;;4.60;3.13;;;9.00;99.90;;;;;;4994877;28;20189;-71
2024/03/23 10:34:41;;;;;;;3.93;3.00;;;8.50;99.90;;;;;;4996404;28;20189;-71
2024/03/23 10:37:07;;;;;;;3.33;3.03;;;8.10;99.90;;;;;;4996811;28;20191;-73
2024/03/23 10:39:38;;;;;;;3.20;3.00;;;7.90;99.90;;;;;;4997308;28;20612;-70
2024/03/23 10:42:08;;;;;;;3.53;3.20;;;7.60;99.90;;;;;;4995641;28;20250;-72
2024/03/23 10:44:34;;;;;;;7.07;3.60;;;7.20;99.90;;;;;;4995024;28;20271;-72
2024/03/23 10:47:03;;;;;;;3.23;2.93;;;6.90;99.90;;;;;;4993132;28;20222;-71
2024/03/23 10:49:34;;;;;;;4.03;3.63;;;6.80;99.90;;;;;;4993757;28;20181;-72
2024/03/23 10:52:01;;;;;;;5.90;3.77;;;6.70;99.90;;;;;;4993730;28;20234;-72
2024/03/23 10:54:29;;;;;;;7.07;4.37;;;6.80;99.90;;;;;;4994406;28;20467;-72
2024/03/23 10:57:09;;;;;;;9.67;4.07;;;6.70;99.90;;;;;;4994213;28;20564;-73
2024/03/23 10:59:37;;;;;;;4.50;4.10;;;6.60;99.90;;;;;;4992848;28;20613;-72
2024/03/23 11:02:03;;;;;;;6.57;4.03;;;6.60;99.90;;;;;;4995078;28;20185;-74
2024/03/23 11:04:38;;;;;;;4.77;4.30;;;6.70;99.90;;;;;;4995396;28;20177;-74
2024/03/23 11:07:23;;;;;;;3.87;2.93;;;6.70;99.90;;;;;;4993572;28;20180;-72
2024/03/23 11:09:51;;;;;;;5.13;3.73;;;6.60;99.90;;;;;;4995028;28;20189;-74
2024/03/23 11:12:22;;;;;;;3.87;3.33;;;6.40;99.90;;;;;;4994522;28;20181;-72
2024/03/23 11:14:53;;;;;;;3.67;3.47;;;6.10;99.90;;;;;;4993789;28;20545;-72
2024/03/23 11:17:23;;;;;;;3.73;3.03;;;5.90;99.90;;;;;;4977543;28;20209;-72
2024/03/23 11:20:09;;;;;;;3.80;3.47;;;6.00;99.90;;;;;;4974111;28;20177;-73
2024/03/23 11:22:40;;;;;;;3.43;3.23;;;6.60;99.90;;;;;;4975493;28;20232;-73
2024/03/23 11:25:26;;;;;;;3.77;3.00;;;7.20;99.90;;;;;;4982817;28;20183;-72
2024/03/23 11:27:59;;;;;;;3.20;3.00;;;7.50;99.90;;;;;;4995323;28;20196;-73
2024/03/23 11:30:27;;;;;;;5.73;3.27;;;7.60;99.90;;;;;;4994790;28;20185;-72
2024/03/23 11:32:55;;;;;;;6.87;3.30;;;7.90;99.90;;;;;;4996256;28;20255;-73
2024/03/23 11:35:33;;;;;;;3.20;2.90;;;8.30;99.90;;;;;;4995764;28;20249;-72
2024/03/23 11:38:01;;;;;;;3.43;3.10;;;8.60;99.90;;;;;;4997005;28;20200;-73
2024/03/23 11:40:27;;;;;;;4.57;3.40;;;8.60;99.90;;;;;;4995745;28;20259;-72
2024/03/23 11:42:56;;;;;;;4.00;3.63;;;8.50;99.90;;;;;;4995180;28;20239;-73
2024/03/23 11:45:22;;;;;;;4.53;4.13;;;8.50;99.90;;;;;;4994117;28;20648;-74
2024/03/23 11:47:47;;;;;;;4.13;3.70;;;8.60;99.90;;;;;;4995993;28;20239;-73
2024/03/23 11:50:20;;;;;;;7.00;3.53;;;8.90;99.90;;;;;;4994708;28;20187;-73
2024/03/23 11:52:45;;;;;;;4.37;3.20;;;9.30;99.90;;;;;;4996457;28;20219;-74
2024/03/23 11:55:11;;;;;;;3.30;3.00;;;9.50;99.90;;;;;;4995628;28;20184;-72
2024/03/23 11:57:36;;;;;;;3.50;3.20;;;9.80;99.90;;;;;;4995968;28;20972;-74
2024/03/23 12:00:19;;;;;;;5.20;3.30;;;10.10;99.90;;;;;;4995528;28;20181;-74
2024/03/23 12:02:45;;;;;;;4.07;3.33;;;10.50;99.90;;;;;;4996327;28;20208;-72
2024/03/23 12:05:15;;;;;;;3.90;3.60;;;10.90;99.90;;;;;;4995305;28;20200;-73
2024/03/23 12:07:41;;;;;;;3.10;2.90;;;10.60;99.90;;;;;;4994943;28;20547;-72
2024/03/23 12:10:07;;;;;;;6.60;6.30;;;9.60;99.90;;;;;;4994794;28;20231;-72
2024/03/23 12:12:33;;;;;;;2.77;2.67;;;9.30;99.90;;;;;;4994503;28;20180;-72
2024/03/23 12:15:03;;;;;;;11.07;10.47;;;9.30;99.90;;;;;;4994826;28;20239;-75
2024/03/23 12:17:29;;;;;;;3.40;3.10;;;9.00;99.90;;;;;;4996372;28;20205;-74
2024/03/23 12:19:55;;;;;;;4.30;4.00;;;8.70;99.90;;;;;;4995654;28;20191;-73
2024/03/23 12:22:21;;;;;;;5.57;4.77;;;7.70;99.90;;;;;;4994728;28;20266;-74
2024/03/23 12:24:48;;;;;;;3.63;3.43;;;6.80;99.90;;;;;;4990252;28;20196;-72
2024/03/23 12:27:14;;;;;;;3.40;3.20;;;6.40;99.90;;;;;;4992960;28;20197;-72
2024/03/23 12:29:41;;;;;;;4.43;4.13;;;5.90;99.90;;;;;;4993757;28;20176;-73
2024/03/23 12:32:07;;;;;;;4.47;3.97;;;5.60;99.90;;;;;;4992143;28;20176;-74
2024/03/23 12:34:33;;;;;;;3.60;3.40;;;5.30;99.90;;;;;;5007021;28;20311;-72
2024/03/23 12:36:58;;;;;;;3.30;3.20;;;5.20;99.90;;;;;;4991777;28;20173;-73
2024/03/23 12:39:24;;;;;;;5.03;3.50;;;5.00;99.90;;;;;;4992048;28;20177;-74
2024/03/23 12:41:50;;;;;;;3.63;3.43;;;5.10;99.90;;;;;;4992441;28;20169;-73
2024/03/23 12:44:16;;;;;;;4.40;3.33;;;5.30;99.90;;;;;;4991837;28;20209;-73
2024/03/23 12:46:42;;;;;;;3.40;3.10;;;5.80;99.90;;;;;;4991309;28;20188;-73
2024/03/23 12:49:07;;;;;;;2.97;2.77;;;6.60;99.90;;;;;;4992735;28;20196;-74
2024/03/23 12:51:34;;;;;;;3.37;3.17;;;7.20;99.90;;;;;;4991963;28;20227;-74
2024/03/23 12:54:00;;;;;;;4.63;3.70;;;7.80;99.90;;;;;;4989711;28;20258;-74